Impacts TAF Board
For situational awareness. Not to be used for flight planning purposes.
IDs:

KVCT - Victoria Rgnl, TX, US

Issued at 1124 UTC 14 Dec 2019
Updated at 1402 UTC 14 Dec 2019
Potential Impact None Slight Moderate High
Time<<15/03Z 15/04Z 15/05Z 15/06Z 15/07Z 15/08Z 15/09Z 15/10Z 15/11Z 15/12Z 15/13Z 15/14Z 15/15Z>>
Type PRVL PRVL PRVL PRVL PRVL PRVL PRVL PRVL PRVL
VIS >6 >6 >6 >6 >6 3 3 3 3
CIG -- -- -- -- -- -- -- -- --
Cover SKC SKC SKC SKC SKC SCT SCT SCT SCT
FltCat VFR VFR VFR VFR VFR MVFR MVFR MVFR MVFR
WX -- -- -- -- -- BR BR BR BR
WDir 150 150 150 150 150 170 170 170 170
WSpd 7 7 7 7 7 6 6 6 6
WGst -- -- -- -- -- -- -- -- --
Raw TAF
KVCT 141124Z 1412/1512 VRB03KT P6SM SKC
  FM141700 15007KT P6SM SKC
  FM150800 17006KT 3SM BR SCT008


METAR Board
Radar Display
Forecast Discussion
For situational awareness. Not to be used for flight planning purposes.